Time;durP1;ratioP1;P1;durP2;ratioP2;P2;SDS_P1;SDS_P2;PMS_P1;PMS_P2;Temp;Humidity;BMP_temperature;BMP_pressure;BME280_temperature;BME280_humidity;BME280_pressure;Samples;Min_cycle;Max_cycle;Signal;HPM_P1;HPM_P2
2023/11/14 00:00:06;;;;;;;;;;;19.80;68.00;;;;;;5002077;28;1266;-66
2023/11/14 00:02:32;;;;;;;;;;;19.70;68.70;;;;;;5001010;28;1712;-66
2023/11/14 00:04:57;;;;;;;;;;;19.80;68.10;;;;;;5003205;28;1317;-67
2023/11/14 00:07:23;;;;;;;;;;;19.70;68.00;;;;;;5001622;28;1267;-67
2023/11/14 00:09:48;;;;;;;;;;;19.80;68.00;;;;;;5002883;28;1902;-67
2023/11/14 00:12:14;;;;;;;;;;;19.80;68.00;;;;;;5003404;28;1447;-67
2023/11/14 00:14:42;;;;;;;;;;;19.70;68.00;;;;;;5002617;28;1379;-67
2023/11/14 00:17:08;;;;;;;;;;;19.80;68.10;;;;;;5004378;28;1239;-67
2023/11/14 00:19:34;;;;;;;;;;;19.80;68.10;;;;;;5004753;28;1617;-67
2023/11/14 00:21:59;;;;;;;;;;;19.80;68.10;;;;;;5004003;28;1327;-66
2023/11/14 00:24:24;;;;;;;;;;;19.80;68.10;;;;;;5002438;28;1535;-66
2023/11/14 00:26:50;;;;;;;;;;;19.80;68.10;;;;;;5004253;28;962;-66
2023/11/14 00:29:18;;;;;;;;;;;19.70;68.10;;;;;;5002323;28;1336;-66
2023/11/14 00:31:44;;;;;;;;;;;19.70;68.10;;;;;;5003433;28;1894;-66
2023/11/14 00:34:11;;;;;;;;;;;19.70;68.10;;;;;;5006077;28;1323;-66
2023/11/14 00:36:36;;;;;;;;;;;19.70;68.10;;;;;;5002531;28;1084;-67
2023/11/14 00:39:01;;;;;;;;;;;19.80;68.20;;;;;;5003529;28;1235;-67
2023/11/14 00:41:27;;;;;;;;;;;19.80;68.20;;;;;;5002430;28;1511;-66
2023/11/14 00:43:53;;;;;;;;;;;19.80;68.20;;;;;;5004121;28;1351;-66
2023/11/14 00:46:18;;;;;;;;;;;19.80;68.20;;;;;;5003194;28;1260;-67
2023/11/14 00:48:46;;;;;;;;;;;19.80;68.20;;;;;;5001111;28;1114;-67
2023/11/14 00:51:11;;;;;;;;;;;19.80;68.20;;;;;;5000987;28;1959;-67
2023/11/14 00:53:37;;;;;;;;;;;19.80;68.20;;;;;;5002599;28;1256;-67
2023/11/14 00:56:02;;;;;;;;;;;19.70;68.10;;;;;;5002799;28;992;-66
2023/11/14 00:58:28;;;;;;;;;;;19.70;68.20;;;;;;5000968;28;1114;-66
2023/11/14 01:00:53;;;;;;;;;;;19.70;68.10;;;;;;5000731;28;1453;-66
2023/11/14 01:03:21;;;;;;;;;;;19.70;68.20;;;;;;5003506;28;1710;-66
2023/11/14 01:05:46;;;;;;;;;;;19.70;68.10;;;;;;4999982;28;1308;-66
2023/11/14 01:08:12;;;;;;;;;;;19.70;68.20;;;;;;5000134;28;1431;-66
2023/11/14 01:10:38;;;;;;;;;;;19.70;68.20;;;;;;5000638;28;1902;-66
2023/11/14 01:13:05;;;;;;;;;;;19.70;68.20;;;;;;5000742;28;1573;-67
2023/11/14 01:15:30;;;;;;;;;;;19.70;68.20;;;;;;5003394;28;1815;-67
2023/11/14 01:17:56;;;;;;;;;;;19.70;68.20;;;;;;5002708;28;1508;-67
2023/11/14 01:20:22;;;;;;;;;;;19.70;68.20;;;;;;5003622;28;1479;-67
2023/11/14 01:22:47;;;;;;;;;;;19.70;68.20;;;;;;5002573;28;1553;-66
2023/11/14 01:25:13;;;;;;;;;;;19.70;68.20;;;;;;5001683;28;1481;-66
2023/11/14 01:27:40;;;;;;;;;;;19.70;68.20;;;;;;5000363;28;1536;-66
2023/11/14 01:30:07;;;;;;;;;;;19.70;68.20;;;;;;5001218;28;1898;-66
2023/11/14 01:32:32;;;;;;;;;;;19.70;68.20;;;;;;5003291;28;1435;-66
2023/11/14 01:34:58;;;;;;;;;;;19.70;68.30;;;;;;5000356;28;1511;-66
2023/11/14 01:37:23;;;;;;;;;;;19.70;68.30;;;;;;4999671;28;1372;-66
2023/11/14 01:39:49;;;;;;;;;;;19.70;68.20;;;;;;5000560;28;1469;-66
2023/11/14 01:42:15;;;;;;;;;;;19.70;68.30;;;;;;5002470;28;1435;-66
2023/11/14 01:44:40;;;;;;;;;;;19.70;68.30;;;;;;5000926;28;1537;-67
2023/11/14 01:47:06;;;;;;;;;;;19.70;68.30;;;;;;5000128;28;1387;-66
2023/11/14 01:49:31;;;;;;;;;;;19.70;68.30;;;;;;5003615;28;1376;-66
2023/11/14 01:51:57;;;;;;;;;;;19.70;68.30;;;;;;5006796;28;1902;-66
2023/11/14 01:54:22;;;;;;;;;;;19.70;68.30;;;;;;5002326;28;1504;-66
2023/11/14 01:56:48;;;;;;;;;;;19.70;68.30;;;;;;4999211;28;1467;-66
2023/11/14 01:59:13;;;;;;;;;;;19.70;68.30;;;;;;5005881;28;1353;-66
2023/11/14 02:01:39;;;;;;;;;;;19.70;68.30;;;;;;5004243;28;1335;-66
2023/11/14 02:04:10;;;;;;;;;;;19.70;68.30;;;;;;5000308;28;1418;-67
2023/11/14 02:06:36;;;;;;;;;;;19.70;68.30;;;;;;5000778;28;1257;-66
2023/11/14 02:09:01;;;;;;;;;;;19.70;68.30;;;;;;5002134;28;1370;-66
2023/11/14 02:11:27;;;;;;;;;;;19.70;68.40;;;;;;5001347;28;1961;-66
2023/11/14 02:13:53;;;;;;;;;;;19.70;68.40;;;;;;4999637;28;1356;-66
2023/11/14 02:16:18;;;;;;;;;;;19.70;68.40;;;;;;5001442;28;1435;-66
2023/11/14 02:18:43;;;;;;;;;;;19.70;68.40;;;;;;5001075;28;1235;-67
2023/11/14 02:21:11;;;;;;;;;;;19.70;68.40;;;;;;4999672;28;1350;-66
2023/11/14 02:23:40;;;;;;;;;;;19.70;68.40;;;;;;5000130;28;1658;-66
2023/11/14 02:26:06;;;;;;;;;;;19.70;68.40;;;;;;5000809;28;1473;-66
2023/11/14 02:28:32;;;;;;;;;;;19.70;68.40;;;;;;5005318;28;1392;-66
2023/11/14 02:30:57;;;;;;;;;;;19.70;68.40;;;;;;5006825;28;1902;-66
2023/11/14 02:33:23;;;;;;;;;;;19.70;68.40;;;;;;5006000;28;1440;-66
2023/11/14 02:35:48;;;;;;;;;;;19.70;68.50;;;;;;5005869;28;1194;-66
2023/11/14 02:38:14;;;;;;;;;;;19.70;68.40;;;;;;5005593;28;1514;-66
2023/11/14 02:40:39;;;;;;;;;;;19.70;68.40;;;;;;5002253;28;1523;-66
2023/11/14 02:43:05;;;;;;;;;;;19.70;68.40;;;;;;5003263;28;1410;-66
2023/11/14 02:45:30;;;;;;;;;;;19.70;68.40;;;;;;5005489;28;1305;-66
2023/11/14 02:47:56;;;;;;;;;;;19.70;68.40;;;;;;5001995;28;1474;-66
2023/11/14 02:50:22;;;;;;;;;;;19.70;68.40;;;;;;5004669;28;1902;-67
2023/11/14 02:52:47;;;;;;;;;;;19.70;68.40;;;;;;5005543;28;1633;-66
2023/11/14 02:55:13;;;;;;;;;;;19.70;68.40;;;;;;5002086;28;1231;-66
2023/11/14 02:57:38;;;;;;;;;;;19.70;68.40;;;;;;5003534;28;1222;-66
2023/11/14 03:00:04;;;;;;;;;;;19.60;68.40;;;;;;5004476;28;1384;-66
2023/11/14 03:02:29;;;;;;;;;;;19.70;68.40;;;;;;5003080;28;1308;-67
2023/11/14 03:04:55;;;;;;;;;;;19.70;68.50;;;;;;5009037;28;1324;-67
2023/11/14 03:07:21;;;;;;;;;;;19.70;68.40;;;;;;5002742;28;1522;-67
2023/11/14 03:09:46;;;;;;;;;;;19.70;68.40;;;;;;5003463;28;1274;-67
2023/11/14 03:12:12;;;;;;;;;;;19.70;68.40;;;;;;5005044;28;1910;-67
2023/11/14 03:14:38;;;;;;;;;;;19.70;68.50;;;;;;5005009;28;1370;-67
2023/11/14 03:17:04;;;;;;;;;;;19.70;68.40;;;;;;5020583;28;1348;-67
2023/11/14 03:19:29;;;;;;;;;;;19.60;68.40;;;;;;5023667;28;1293;-67
2023/11/14 03:21:54;;;;;;;;;;;19.70;68.50;;;;;;5006530;28;1545;-66
2023/11/14 03:24:21;;;;;;;;;;;19.60;68.40;;;;;;5005468;28;1601;-64
2023/11/14 03:26:46;;;;;;;;;;;19.70;68.40;;;;;;5007389;28;1238;-66
2023/11/14 03:29:12;;;;;;;;;;;19.70;68.40;;;;;;5006247;28;1317;-66
2023/11/14 03:31:38;;;;;;;;;;;19.70;68.40;;;;;;5004032;28;1965;-65
2023/11/14 03:34:06;;;;;;;;;;;19.70;68.50;;;;;;5004257;28;1420;-67
2023/11/14 03:36:32;;;;;;;;;;;19.60;68.40;;;;;;5004507;28;1234;-67
2023/11/14 03:38:57;;;;;;;;;;;19.60;68.40;;;;;;5000824;28;1392;-66
2023/11/14 03:41:23;;;;;;;;;;;19.60;68.40;;;;;;5000525;28;1376;-67
2023/11/14 03:43:48;;;;;;;;;;;19.60;69.10;;;;;;5005042;28;1587;-66
2023/11/14 03:46:14;;;;;;;;;;;19.60;68.40;;;;;;5004417;28;1410;-67
2023/11/14 03:48:40;;;;;;;;;;;19.60;68.40;;;;;;5004078;28;1426;-68
2023/11/14 03:51:09;;;;;;;;;;;19.60;68.40;;;;;;5006294;28;1930;-68
2023/11/14 03:53:38;;;;;;;;;;;19.60;68.40;;;;;;5005589;28;1276;-67
2023/11/14 03:56:04;;;;;;;;;;;19.60;68.40;;;;;;5003113;28;1318;-68
2023/11/14 03:58:30;;;;;;;;;;;19.60;68.40;;;;;;5002465;28;1426;-67
2023/11/14 04:00:56;;;;;;;;;;;19.60;68.40;;;;;;5003065;28;1230;-68
2023/11/14 04:03:21;;;;;;;;;;;19.60;68.40;;;;;;5003142;28;1367;-67
2023/11/14 04:05:47;;;;;;;;;;;19.60;68.40;;;;;;5004887;28;1254;-67
2023/11/14 04:08:12;;;;;;;;;;;19.60;68.40;;;;;;5004700;28;1441;-67
2023/11/14 04:10:38;;;;;;;;;;;19.60;68.40;;;;;;5002811;28;1967;-68
2023/11/14 04:13:03;;;;;;;;;;;19.60;68.40;;;;;;5006530;28;1376;-67
2023/11/14 04:15:30;;;;;;;;;;;19.60;68.40;;;;;;5003151;28;1236;-68
2023/11/14 04:17:56;;;;;;;;;;;19.60;68.40;;;;;;5003798;28;1551;-68
2023/11/14 04:20:22;;;;;;;;;;;19.60;68.40;;;;;;5001967;28;1553;-68
2023/11/14 04:22:47;;;;;;;;;;;19.60;68.40;;;;;;5000902;28;1516;-68
2023/11/14 04:25:12;;;;;;;;;;;19.60;68.40;;;;;;5003962;28;1580;-68
2023/11/14 04:27:38;;;;;;;;;;;19.60;68.50;;;;;;4991185;28;1273;-68
2023/11/14 04:30:04;;;;;;;;;;;19.60;68.50;;;;;;5001427;28;1907;-67
2023/11/14 04:32:30;;;;;;;;;;;19.60;68.50;;;;;;5004464;28;1347;-68
2023/11/14 04:34:56;;;;;;;;;;;19.60;68.50;;;;;;5001423;28;1467;-67
2023/11/14 04:37:21;;;;;;;;;;;19.60;68.50;;;;;;5000103;28;1287;-68
2023/11/14 04:39:47;;;;;;;;;;;19.60;68.50;;;;;;5007765;28;1505;-68
2023/11/14 04:42:13;;;;;;;;;;;19.60;68.50;;;;;;5004368;28;1374;-67
2023/11/14 04:44:38;;;;;;;;;;;19.60;68.50;;;;;;5003103;28;1241;-68
2023/11/14 04:47:05;;;;;;;;;;;19.60;68.50;;;;;;5001450;28;1232;-68
2023/11/14 04:49:31;;;;;;;;;;;19.60;68.50;;;;;;5016678;28;1147;-68
2023/11/14 04:51:56;;;;;;;;;;;19.60;68.50;;;;;;5003150;28;1960;-68
2023/11/14 04:54:22;;;;;;;;;;;19.60;68.50;;;;;;5004178;28;1462;-68
2023/11/14 04:56:47;;;;;;;;;;;19.60;68.50;;;;;;5000747;28;1154;-68
2023/11/14 04:59:13;;;;;;;;;;;19.60;68.50;;;;;;5001319;28;1314;-67
2023/11/14 05:01:38;;;;;;;;;;;19.60;68.50;;;;;;4999694;28;1482;-67
2023/11/14 05:04:04;;;;;;;;;;;19.60;68.50;;;;;;5002245;28;1438;-67
2023/11/14 05:06:32;;;;;;;;;;;19.60;68.50;;;;;;5001487;28;1450;-68
2023/11/14 05:08:58;;;;;;;;;;;19.60;68.50;;;;;;5003724;28;1319;-68
2023/11/14 05:11:23;;;;;;;;;;;19.60;68.50;;;;;;5002104;28;1973;-67
2023/11/14 05:13:49;;;;;;;;;;;19.60;68.50;;;;;;5004772;28;1475;-68
2023/11/14 05:16:15;;;;;;;;;;;19.60;68.60;;;;;;5001347;28;1356;-68
2023/11/14 05:18:41;;;;;;;;;;;19.60;68.50;;;;;;5002883;28;1358;-68
2023/11/14 05:21:07;;;;;;;;;;;19.60;68.50;;;;;;4999259;28;1261;-68
2023/11/14 05:23:32;;;;;;;;;;;19.60;68.50;;;;;;5003279;28;1455;-67
2023/11/14 05:25:58;;;;;;;;;;;19.60;68.50;;;;;;5000636;28;1367;-67
2023/11/14 05:28:23;;;;;;;;;;;19.60;68.60;;;;;;4996502;28;1381;-68
2023/11/14 05:30:48;;;;;;;;;;;19.60;68.50;;;;;;5000404;28;1906;-67
2023/11/14 05:33:14;;;;;;;;;;;19.60;68.60;;;;;;5002972;28;1489;-68
2023/11/14 05:35:40;;;;;;;;;;;19.60;68.60;;;;;;5004070;28;1553;-67
2023/11/14 05:38:05;;;;;;;;;;;19.60;68.60;;;;;;5001875;28;1374;-68
2023/11/14 05:40:31;;;;;;;;;;;19.60;68.50;;;;;;5000841;28;1279;-67
2023/11/14 05:42:56;;;;;;;;;;;19.60;68.50;;;;;;5001395;28;1334;-68
2023/11/14 05:45:22;;;;;;;;;;;19.60;68.60;;;;;;5002148;28;1321;-68
2023/11/14 05:47:48;;;;;;;;;;;19.60;68.60;;;;;;5003639;28;1429;-67
2023/11/14 05:50:14;;;;;;;;;;;19.60;68.60;;;;;;5001644;28;1982;-67
2023/11/14 05:52:40;;;;;;;;;;;19.60;68.60;;;;;;5005844;28;1339;-67
2023/11/14 05:55:06;;;;;;;;;;;19.60;68.60;;;;;;5000842;28;1511;-67
2023/11/14 05:57:31;;;;;;;;;;;19.60;68.60;;;;;;5001039;28;1226;-68
2023/11/14 05:59:57;;;;;;;;;;;19.60;68.70;;;;;;4999250;28;1508;-68
2023/11/14 06:02:23;;;;;;;;;;;19.60;68.60;;;;;;4999534;28;1320;-68
2023/11/14 06:04:48;;;;;;;;;;;19.60;68.70;;;;;;5003460;28;1117;-68
2023/11/14 06:07:14;;;;;;;;;;;19.60;68.70;;;;;;4999534;28;1334;-68
2023/11/14 06:09:40;;;;;;;;;;;19.60;68.70;;;;;;5002034;28;1293;-68
2023/11/14 06:12:06;;;;;;;;;;;19.60;68.70;;;;;;4992181;28;1966;-69
2023/11/14 06:14:31;;;;;;;;;;;19.60;68.70;;;;;;5000905;28;2317;-69
2023/11/14 06:16:57;;;;;;;;;;;19.60;68.70;;;;;;4999492;28;1536;-69
2023/11/14 06:19:22;;;;;;;;;;;19.60;68.70;;;;;;5000472;28;1445;-69
2023/11/14 06:21:48;;;;;;;;;;;19.50;68.60;;;;;;5001180;28;1663;-69
2023/11/14 06:24:13;;;;;;;;;;;19.60;68.70;;;;;;5001192;28;1347;-68
2023/11/14 06:26:38;;;;;;;;;;;19.60;68.70;;;;;;4999567;28;1426;-69
2023/11/14 06:29:04;;;;;;;;;;;19.60;68.70;;;;;;5001242;28;1324;-68
2023/11/14 06:31:29;;;;;;;;;;;19.60;68.70;;;;;;4999891;28;1959;-68
2023/11/14 06:33:55;;;;;;;;;;;19.60;68.70;;;;;;4999801;28;1495;-68
2023/11/14 06:36:20;;;;;;;;;;;19.50;68.60;;;;;;4998981;28;1085;-69
2023/11/14 06:38:46;;;;;;;;;;;19.60;68.70;;;;;;5000851;28;860;-67
2023/11/14 06:41:12;;;;;;;;;;;19.60;68.70;;;;;;5005183;28;1327;-68
2023/11/14 06:43:37;;;;;;;;;;;19.60;68.70;;;;;;5000747;28;1296;-69
2023/11/14 06:46:03;;;;;;;;;;;19.60;68.70;;;;;;4999848;28;1061;-68
2023/11/14 06:48:28;;;;;;;;;;;19.60;68.70;;;;;;5004937;28;1238;-67
2023/11/14 06:50:54;;;;;;;;;;;19.50;68.70;;;;;;4999047;28;1961;-67
2023/11/14 06:53:19;;;;;;;;;;;19.60;68.70;;;;;;4998278;28;1678;-68
2023/11/14 06:55:45;;;;;;;;;;;19.60;68.70;;;;;;4999513;28;1534;-68
2023/11/14 06:58:11;;;;;;;;;;;19.60;68.70;;;;;;5004172;28;1389;-68
2023/11/14 07:00:36;;;;;;;;;;;19.60;68.70;;;;;;5000460;28;1335;-68
2023/11/14 07:03:03;;;;;;;;;;;19.60;68.70;;;;;;5000859;28;1426;-68
2023/11/14 07:05:30;;;;;;;;;;;19.50;68.70;;;;;;4999796;28;1777;-68
2023/11/14 07:07:55;;;;;;;;;;;19.50;68.70;;;;;;4996824;28;847;-68
2023/11/14 07:10:21;;;;;;;;;;;19.50;68.60;;;;;;5000701;28;2110;-68
2023/11/14 07:12:46;;;;;;;;;;;19.60;68.70;;;;;;5007890;28;1261;-68
2023/11/14 07:15:12;;;;;;;;;;;19.60;68.60;;;;;;5003432;28;1344;-68
2023/11/14 07:17:38;;;;;;;;;;;19.60;68.50;;;;;;5002846;28;1452;-73
2023/11/14 07:20:10;;;;;;;;;;;19.60;68.50;;;;;;5001581;28;1499;-71
2023/11/14 07:22:38;;;;;;;;;;;19.60;68.40;;;;;;5005362;28;1398;-72
2023/11/14 07:25:05;;;;;;;;;;;19.60;68.40;;;;;;5001300;28;1252;-72
2023/11/14 07:27:30;;;;;;;;;;;19.70;68.40;;;;;;5001255;28;1320;-68
2023/11/14 07:29:56;;;;;;;;;;;19.70;68.30;;;;;;5003050;28;1388;-67
2023/11/14 07:32:21;;;;;;;;;;;19.70;68.20;;;;;;5001983;28;1980;-68
2023/11/14 07:34:47;;;;;;;;;;;19.80;68.10;;;;;;5004522;28;1525;-69
2023/11/14 07:37:12;;;;;;;;;;;19.80;68.00;;;;;;5003969;28;1387;-67
2023/11/14 07:39:40;;;;;;;;;;;19.80;67.90;;;;;;5005710;28;1546;-67
2023/11/14 07:42:06;;;;;;;;;;;19.80;68.60;;;;;;5004134;28;1470;-67
2023/11/14 07:44:31;;;;;;;;;;;19.80;67.70;;;;;;5003816;28;1385;-67
2023/11/14 07:46:57;;;;;;;;;;;19.90;67.70;;;;;;5004577;28;1385;-69
2023/11/14 07:49:22;;;;;;;;;;;19.90;67.60;;;;;;5004822;28;1718;-68
2023/11/14 07:51:48;;;;;;;;;;;19.90;67.50;;;;;;5001637;28;1910;-69
2023/11/14 07:54:14;;;;;;;;;;;19.90;67.40;;;;;;5004457;28;1742;-67
2023/11/14 07:56:42;;;;;;;;;;;19.90;67.30;;;;;;5001798;28;1626;-67
2023/11/14 07:59:08;;;;;;;;;;;20.00;67.30;;;;;;5007483;28;1416;-69
2023/11/14 08:01:35;;;;;;;;;;;20.00;67.30;;;;;;5000117;28;1325;-68
2023/11/14 08:04:05;;;;;;;;;;;20.00;67.20;;;;;;5007993;28;1399;-68
2023/11/14 08:06:31;;;;;;;;;;;20.00;67.10;;;;;;4998617;28;1395;-68
2023/11/14 08:08:56;;;;;;;;;;;20.00;67.10;;;;;;5002161;28;1350;-68
2023/11/14 08:11:21;;;;;;;;;;;20.00;67.00;;;;;;5005576;28;1914;-68
2023/11/14 08:13:47;;;;;;;;;;;20.00;67.00;;;;;;5003089;28;1548;-68
2023/11/14 08:16:12;;;;;;;;;;;20.00;67.00;;;;;;5001214;28;1586;-68
2023/11/14 08:18:38;;;;;;;;;;;20.00;67.00;;;;;;4985204;28;1433;-68
2023/11/14 08:21:04;;;;;;;;;;;20.00;67.00;;;;;;5004399;28;1382;-68
2023/11/14 08:23:29;;;;;;;;;;;20.00;67.00;;;;;;5006192;28;1581;-68
2023/11/14 08:25:55;;;;;;;;;;;20.00;66.90;;;;;;5005402;28;1303;-68
2023/11/14 08:28:20;;;;;;;;;;;20.00;67.70;;;;;;5002711;28;1476;-68
2023/11/14 08:30:46;;;;;;;;;;;20.00;66.90;;;;;;5003991;28;1898;-68
2023/11/14 08:33:11;;;;;;;;;;;20.10;67.00;;;;;;5003131;28;1542;-68
2023/11/14 08:35:37;;;;;;;;;;;20.00;67.00;;;;;;5007127;28;1410;-68
2023/11/14 08:38:02;;;;;;;;;;;20.00;67.00;;;;;;5003026;28;1624;-68
2023/11/14 08:40:29;;;;;;;;;;;20.00;67.00;;;;;;5004798;28;1430;-68
2023/11/14 08:42:54;;;;;;;;;;;20.00;67.00;;;;;;5003449;28;1367;-68
2023/11/14 08:45:20;;;;;;;;;;;20.00;67.10;;;;;;5004653;28;1511;-67
2023/11/14 08:47:46;;;;;;;;;;;20.00;67.10;;;;;;5001634;28;1304;-68
2023/11/14 08:50:12;;;;;;;;;;;20.00;67.10;;;;;;5002485;28;1899;-68
2023/11/14 08:52:38;;;;;;;;;;;20.00;67.10;;;;;;5003818;28;2015;-68
2023/11/14 08:55:04;;;;;;;;;;;20.00;67.20;;;;;;5001741;28;1484;-67
2023/11/14 08:57:29;;;;;;;;;;;20.00;67.20;;;;;;4999547;28;1710;-67
2023/11/14 08:59:59;;;;;;;;;;;20.00;67.20;;;;;;5001489;28;1516;-67
2023/11/14 09:02:25;;;;;;;;;;;20.00;67.20;;;;;;5002560;28;1508;-67
2023/11/14 09:04:50;;;;;;;;;;;20.00;67.20;;;;;;5003530;28;1421;-68
2023/11/14 09:07:16;;;;;;;;;;;20.00;67.20;;;;;;5003942;28;1532;-67
2023/11/14 09:09:47;;;;;;;;;;;20.00;67.20;;;;;;5006981;28;1352;-67
2023/11/14 09:12:12;;;;;;;;;;;20.00;67.20;;;;;;5003263;28;1969;-67
2023/11/14 09:14:38;;;;;;;;;;;20.00;67.20;;;;;;5001341;28;1284;-67
2023/11/14 09:17:08;;;;;;;;;;;20.00;67.20;;;;;;5004989;28;1184;-67
2023/11/14 09:19:33;;;;;;;;;;;20.00;67.10;;;;;;5002403;28;1377;-67
2023/11/14 09:22:00;;;;;;;;;;;20.00;67.10;;;;;;4998899;28;1337;-68
2023/11/14 09:24:25;;;;;;;;;;;20.00;67.10;;;;;;5002402;28;1232;-67
2023/11/14 09:26:51;;;;;;;;;;;20.00;67.00;;;;;;5003435;28;1253;-67
2023/11/14 09:29:16;;;;;;;;;;;20.00;67.00;;;;;;5000259;28;1326;-68
2023/11/14 09:31:42;;;;;;;;;;;20.00;67.00;;;;;;5005155;28;1910;-68
2023/11/14 09:34:08;;;;;;;;;;;20.00;66.90;;;;;;5002971;28;1387;-67
2023/11/14 09:36:34;;;;;;;;;;;20.10;67.00;;;;;;5001036;28;1270;-67
2023/11/14 09:38:59;;;;;;;;;;;20.10;67.00;;;;;;5002219;28;1520;-68
2023/11/14 09:41:25;;;;;;;;;;;20.10;67.00;;;;;;5001699;28;962;-68
2023/11/14 09:43:50;;;;;;;;;;;20.10;66.90;;;;;;5003902;28;1332;-68
2023/11/14 09:46:16;;;;;;;;;;;20.00;66.90;;;;;;5003834;28;1405;-68
2023/11/14 09:48:43;;;;;;;;;;;20.10;67.00;;;;;;5002104;28;1529;-68
2023/11/14 09:51:09;;;;;;;;;;;20.00;66.90;;;;;;5006684;28;1906;-68
2023/11/14 09:53:35;;;;;;;;;;;20.10;67.00;;;;;;5001982;28;1435;-68
2023/11/14 09:56:02;;;;;;;;;;;20.00;67.00;;;;;;4998685;28;1486;-68
2023/11/14 09:58:27;;;;;;;;;;;20.00;67.00;;;;;;4998913;28;1539;-68
2023/11/14 10:00:53;;;;;;;;;;;20.00;67.00;;;;;;5002040;28;1313;-68
2023/11/14 10:03:18;;;;;;;;;;;20.00;67.00;;;;;;5002544;28;1565;-68
2023/11/14 10:05:44;;;;;;;;;;;20.00;67.10;;;;;;4999719;28;1416;-68
2023/11/14 10:08:13;;;;;;;;;;;20.00;67.10;;;;;;4999864;28;1365;-68
2023/11/14 10:10:40;;;;;;;;;;;20.00;67.10;;;;;;5002484;28;1910;-68
2023/11/14 10:13:20;;;;;;;;;;;20.00;67.20;;;;;;5004225;28;1353;-68
2023/11/14 10:15:46;;;;;;;;;;;20.00;67.20;;;;;;5005948;28;1347;-68
2023/11/14 10:18:12;;;;;;;;;;;20.00;67.20;;;;;;4999655;28;1367;-68
2023/11/14 10:20:38;;;;;;;;;;;20.00;67.20;;;;;;4998588;28;1386;-68
2023/11/14 10:23:04;;;;;;;;;;;20.00;67.20;;;;;;4999786;28;1415;-68
2023/11/14 10:25:37;;;;;;;;;;;20.00;67.30;;;;;;5001370;28;1329;-68
2023/11/14 10:28:05;;;;;;;;;;;20.00;67.20;;;;;;4999119;28;1360;-68
2023/11/14 10:30:55;;;;;;;;;;;20.00;67.20;;;;;;4998974;28;1966;-68
2023/11/14 10:33:21;;;;;;;;;;;20.00;67.20;;;;;;5000391;28;1450;-68
2023/11/14 10:35:46;;;;;;;;;;;20.00;67.20;;;;;;5001974;28;1189;-68
2023/11/14 10:38:19;;;;;;;;;;;20.00;67.10;;;;;;5000944;28;1235;-68
2023/11/14 10:40:45;;;;;;;;;;;20.00;67.00;;;;;;4998501;28;1537;-68
2023/11/14 10:43:10;;;;;;;;;;;20.00;67.00;;;;;;4999658;28;1256;-68
2023/11/14 10:45:39;;;;;;;;;;;20.00;67.00;;;;;;5019333;28;1509;-68
2023/11/14 10:48:04;;;;;;;;;;;20.10;67.00;;;;;;5007043;28;1578;-68
2023/11/14 10:50:31;;;;;;;;;;;20.10;66.90;;;;;;5003733;28;1956;-68
2023/11/14 10:52:59;;;;;;;;;;;20.10;66.90;;;;;;5004693;28;1375;-68
2023/11/14 10:55:25;;;;;;;;;;;20.10;66.90;;;;;;5005939;28;1367;-68
2023/11/14 10:57:51;;;;;;;;;;;20.10;66.90;;;;;;5003894;28;1594;-68
2023/11/14 11:00:17;;;;;;;;;;;20.10;66.90;;;;;;5007273;28;1486;-68
2023/11/14 11:02:44;;;;;;;;;;;20.10;66.90;;;;;;5006517;28;1477;-68
2023/11/14 11:05:10;;;;;;;;;;;20.10;67.00;;;;;;5004754;28;1604;-68
2023/11/14 11:07:37;;;;;;;;;;;20.10;67.00;;;;;;4985969;28;1464;-68
2023/11/14 11:10:03;;;;;;;;;;;20.10;67.00;;;;;;5006729;28;1219;-68
2023/11/14 11:12:29;;;;;;;;;;;20.10;67.00;;;;;;5003809;28;1910;-68
2023/11/14 11:14:54;;;;;;;;;;;20.00;66.90;;;;;;5009121;28;1315;-68
2023/11/14 11:17:36;;;;;;;;;;;20.00;67.00;;;;;;5005252;28;1470;-68
2023/11/14 11:20:02;;;;;;;;;;;20.00;67.00;;;;;;5003490;28;1521;-68
2023/11/14 11:22:28;;;;;;;;;;;20.00;67.00;;;;;;5003892;28;1396;-68
2023/11/14 11:25:12;;;;;;;;;;;20.00;67.00;;;;;;5004965;28;1454;-68
2023/11/14 11:27:40;;;;;;;;;;;20.00;67.00;;;;;;5003466;28;1273;-68
2023/11/14 11:30:08;;;;;;;;;;;20.00;67.10;;;;;;5004322;28;1514;-68
2023/11/14 11:32:35;;;;;;;;;;;20.00;67.10;;;;;;5002268;28;1906;-68
2023/11/14 11:35:16;;;;;;;;;;;20.00;67.10;;;;;;5008860;28;1529;-68
2023/11/14 11:38:00;;;;;;;;;;;20.00;67.20;;;;;;5004453;28;1469;-67
2023/11/14 11:40:27;;;;;;;;;;;20.00;66.70;;;;;;5016996;28;1392;-68
2023/11/14 11:43:12;;;;;;;;;;;20.00;65.10;;;;;;5006835;28;1363;-68
2023/11/14 11:45:39;;;;;;;;;;;20.00;64.80;;;;;;5004589;28;1317;-68
2023/11/14 11:48:40;;;;;;;;;;;20.00;64.60;;;;;;5000401;28;1737;-68
2023/11/14 11:51:21;;;;;;;;;;;20.00;64.00;;;;;;4972786;28;1898;-65
2023/11/14 11:53:49;;;;;;;;;;;20.00;62.60;;;;;;4999730;28;1463;-67
2023/11/14 11:56:33;;;;;;;;;;;20.00;61.90;;;;;;4998365;28;1352;-67
2023/11/14 11:58:59;;;;;;;;;;;20.00;61.70;;;;;;5004557;28;1459;-69
2023/11/14 12:01:24;;;;;;;;;;;20.00;61.50;;;;;;5001949;28;1176;-67
2023/11/14 12:03:50;;;;;;;;;;;20.00;61.40;;;;;;5006229;28;1359;-67
2023/11/14 12:06:15;;;;;;;;;;;20.00;61.10;;;;;;5003420;28;1447;-68
2023/11/14 12:08:41;;;;;;;;;;;20.00;61.50;;;;;;5002604;28;1335;-68
2023/11/14 12:11:08;;;;;;;;;;;20.00;61.90;;;;;;5008214;28;1902;-68
2023/11/14 12:13:33;;;;;;;;;;;20.00;62.00;;;;;;5004388;28;1629;-68
2023/11/14 12:15:59;;;;;;;;;;;20.00;62.20;;;;;;5001529;28;1457;-68
2023/11/14 12:18:24;;;;;;;;;;;20.00;62.50;;;;;;5004635;28;1489;-68
2023/11/14 12:20:50;;;;;;;;;;;20.00;62.80;;;;;;5017187;28;1332;-68
2023/11/14 12:23:15;;;;;;;;;;;20.00;63.10;;;;;;5006738;28;1732;-67
2023/11/14 12:25:41;;;;;;;;;;;20.00;63.40;;;;;;5001073;28;1368;-68
2023/11/14 12:28:06;;;;;;;;;;;20.00;63.50;;;;;;5001633;28;1255;-67
2023/11/14 12:30:34;;;;;;;;;;;20.00;63.80;;;;;;5008175;28;1906;-67
2023/11/14 12:33:05;;;;;;;;;;;20.00;64.00;;;;;;5002040;28;1527;-68
2023/11/14 12:35:43;;;;;;;;;;;20.00;64.20;;;;;;5002246;28;1226;-68
2023/11/14 12:38:09;;;;;;;;;;;20.00;64.30;;;;;;4999575;28;1056;-67
2023/11/14 12:40:34;;;;;;;;;;;20.00;64.50;;;;;;5004259;28;1329;-66
2023/11/14 12:43:00;;;;;;;;;;;20.00;64.50;;;;;;5000902;28;1277;-67
2023/11/14 12:45:27;;;;;;;;;;;19.90;64.60;;;;;;4999772;28;1320;-68
2023/11/14 12:47:54;;;;;;;;;;;19.90;64.70;;;;;;5002225;28;1455;-67
2023/11/14 12:50:23;;;;;;;;;;;19.90;64.80;;;;;;5003453;28;1966;-69
2023/11/14 12:52:48;;;;;;;;;;;19.90;64.90;;;;;;5005502;28;1516;-67
2023/11/14 12:55:14;;;;;;;;;;;19.90;64.90;;;;;;4999642;28;1321;-67
2023/11/14 12:57:39;;;;;;;;;;;20.00;65.10;;;;;;5001280;28;1461;-67
2023/11/14 13:00:07;;;;;;;;;;;20.00;65.10;;;;;;5004904;28;1258;-67
2023/11/14 13:02:32;;;;;;;;;;;20.00;65.20;;;;;;5002194;28;1321;-67
2023/11/14 13:04:58;;;;;;;;;;;20.00;65.20;;;;;;5003242;28;1501;-68
2023/11/14 13:07:23;;;;;;;;;;;20.00;65.10;;;;;;4998617;28;1448;-67
2023/11/14 13:09:49;;;;;;;;;;;20.00;65.20;;;;;;5002365;28;1734;-68
2023/11/14 13:12:15;;;;;;;;;;;20.00;65.10;;;;;;5003054;28;1914;-68
2023/11/14 13:14:40;;;;;;;;;;;20.00;65.10;;;;;;5004431;28;1376;-68
2023/11/14 13:17:08;;;;;;;;;;;20.00;65.20;;;;;;4999996;28;1499;-68
2023/11/14 13:19:37;;;;;;;;;;;20.00;65.10;;;;;;4998625;28;1577;-68
2023/11/14 13:22:05;;;;;;;;;;;20.00;65.20;;;;;;5001430;28;1302;-68
2023/11/14 13:24:31;;;;;;;;;;;20.00;65.20;;;;;;5000280;28;1337;-69
2023/11/14 13:26:57;;;;;;;;;;;20.00;65.20;;;;;;5000826;28;1200;-68
2023/11/14 13:29:22;;;;;;;;;;;20.00;65.20;;;;;;5002820;28;1399;-68
2023/11/14 13:31:50;;;;;;;;;;;20.00;65.30;;;;;;5002358;28;1930;-68
2023/11/14 13:34:15;;;;;;;;;;;20.00;65.30;;;;;;5002049;28;1385;-68
2023/11/14 13:36:41;;;;;;;;;;;20.00;65.40;;;;;;5001201;28;1274;-68
2023/11/14 13:39:06;;;;;;;;;;;20.00;65.40;;;;;;5005199;28;1334;-68
2023/11/14 13:41:32;;;;;;;;;;;20.00;65.50;;;;;;4999830;28;1390;-68
2023/11/14 13:43:58;;;;;;;;;;;20.00;65.50;;;;;;5001875;28;1472;-68
2023/11/14 13:46:23;;;;;;;;;;;20.00;65.50;;;;;;5002559;28;1336;-68
2023/11/14 13:48:49;;;;;;;;;;;20.00;65.50;;;;;;5004064;28;1308;-68
2023/11/14 13:51:14;;;;;;;;;;;20.00;65.60;;;;;;5002561;28;1895;-68
2023/11/14 13:53:40;;;;;;;;;;;20.00;65.60;;;;;;5000936;28;1301;-68
2023/11/14 13:56:07;;;;;;;;;;;20.00;65.70;;;;;;5001985;28;1260;-69
2023/11/14 13:58:35;;;;;;;;;;;20.00;65.70;;;;;;4998298;28;1381;-68
2023/11/14 14:01:06;;;;;;;;;;;20.00;65.80;;;;;;4999730;28;1404;-68
2023/11/14 14:03:32;;;;;;;;;;;20.00;65.80;;;;;;4999426;28;1395;-67
2023/11/14 14:05:57;;;;;;;;;;;20.00;65.80;;;;;;5001750;28;1544;-68
2023/11/14 14:08:23;;;;;;;;;;;20.00;65.80;;;;;;4999834;28;1381;-68
2023/11/14 14:10:48;;;;;;;;;;;20.00;65.90;;;;;;5009488;28;1977;-68
2023/11/14 14:13:14;;;;;;;;;;;20.00;65.90;;;;;;4994538;28;1569;-68
2023/11/14 14:15:40;;;;;;;;;;;20.00;65.90;;;;;;4996086;28;1012;-69
2023/11/14 14:18:06;;;;;;;;;;;20.00;65.90;;;;;;4998411;28;1733;-69
2023/11/14 14:20:31;;;;;;;;;;;20.00;65.90;;;;;;5003567;28;1923;-71
2023/11/14 14:22:57;;;;;;;;;;;20.00;65.80;;;;;;5023278;28;1500;-70
2023/11/14 14:25:24;;;;;;;;;;;20.00;65.80;;;;;;5003599;28;1357;-70